Time;durP1;ratioP1;P1;durP2;ratioP2;P2;SDS_P1;SDS_P2;PMS_P1;PMS_P2;Temp;Humidity;BMP_temperature;BMP_pressure;BME280_temperature;BME280_humidity;BME280_pressure;Samples;Min_cycle;Max_cycle;Signal;HPM_P1;HPM_P2
2022/03/21 00:01:51;;;;;;;12.30;7.43;;;9.60;46.60;;;;;;5100139;28;20021;-79
2022/03/21 00:04:17;;;;;;;13.38;7.57;;;9.60;43.50;;;;;;5093244;28;20108;-79
2022/03/21 00:06:43;;;;;;;8.68;6.47;;;9.60;43.30;;;;;;5093124;28;20074;-79
2022/03/21 00:09:09;;;;;;;12.57;7.75;;;9.60;44.70;;;;;;5093013;28;20056;-79
2022/03/21 00:11:34;;;;;;;11.57;7.45;;;9.60;47.00;;;;;;5094474;28;20040;-79
2022/03/21 00:14:01;;;;;;;12.65;7.60;;;9.60;44.00;;;;;;5094439;28;20016;-79
2022/03/21 00:16:27;;;;;;;8.20;6.43;;;9.60;43.30;;;;;;5076379;28;20489;-79
2022/03/21 00:18:53;;;;;;;12.77;6.72;;;9.60;44.00;;;;;;5075912;28;20287;-78
2022/03/21 00:21:19;;;;;;;10.30;7.60;;;9.50;46.10;;;;;;5094442;28;20110;-79
2022/03/21 00:23:47;;;;;;;12.55;7.15;;;9.40;46.70;;;;;;5094440;28;20031;-79
2022/03/21 00:26:15;;;;;;;11.18;7.10;;;9.40;46.40;;;;;;5075973;28;20055;-80
2022/03/21 00:28:41;;;;;;;10.10;6.70;;;9.30;44.10;;;;;;5094106;28;20024;-79
2022/03/21 00:31:07;;;;;;;9.90;6.75;;;9.30;45.60;;;;;;5076126;28;20115;-79
2022/03/21 00:33:33;;;;;;;10.45;7.30;;;9.30;46.70;;;;;;5093935;28;20107;-80
2022/03/21 00:35:59;;;;;;;10.20;6.60;;;9.30;44.30;;;;;;5075662;28;20035;-80
2022/03/21 00:38:26;;;;;;;11.35;6.43;;;9.30;42.40;;;;;;5075906;28;20032;-79
2022/03/21 00:40:52;;;;;;;10.10;7.53;;;9.30;42.30;;;;;;5093540;28;20425;-80
2022/03/21 00:43:22;;;;;;;8.88;6.32;;;9.30;42.80;;;;;;5075609;28;20505;-79
2022/03/21 00:45:53;;;;;;;14.52;7.25;;;9.30;45.20;;;;;;5093849;28;20032;-79
2022/03/21 00:48:20;;;;;;;9.05;6.93;;;9.30;46.10;;;;;;5093895;28;20051;-79
2022/03/21 00:50:46;;;;;;;17.08;6.57;;;9.20;47.80;;;;;;5093893;28;20095;-78
2022/03/21 00:53:11;;;;;;;16.30;7.72;;;9.10;47.80;;;;;;5093235;28;20134;-79
2022/03/21 00:55:37;;;;;;;9.77;7.10;;;9.10;47.70;;;;;;5093287;28;20044;-79
2022/03/21 00:58:03;;;;;;;13.73;6.88;;;9.10;45.90;;;;;;5093621;28;20368;-79
2022/03/21 01:00:31;;;;;;;9.10;7.05;;;9.00;47.60;;;;;;5075099;28;20028;-78
2022/03/21 01:02:59;;;;;;;10.30;6.53;;;9.00;48.00;;;;;;5093314;28;20028;-79
2022/03/21 01:05:25;;;;;;;11.43;6.88;;;8.90;48.30;;;;;;5093485;28;20016;-79
2022/03/21 01:07:52;;;;;;;12.23;7.78;;;8.90;48.60;;;;;;5093462;28;20031;-79
2022/03/21 01:10:19;;;;;;;10.13;6.25;;;8.80;48.60;;;;;;5093356;28;20480;-78
2022/03/21 01:12:46;;;;;;;11.60;7.05;;;8.80;48.40;;;;;;5093282;28;20024;-79
2022/03/21 01:15:14;;;;;;;11.15;6.70;;;8.80;48.10;;;;;;5093299;28;20490;-79
2022/03/21 01:17:42;;;;;;;10.80;6.93;;;8.70;48.20;;;;;;5093384;28;20026;-79
2022/03/21 01:20:09;;;;;;;7.78;5.90;;;8.80;48.50;;;;;;5093481;28;20062;-78
2022/03/21 01:22:35;;;;;;;11.55;6.68;;;8.70;48.20;;;;;;5074707;28;20111;-79
2022/03/21 01:25:01;;;;;;;11.13;6.95;;;8.70;48.20;;;;;;5093216;28;20122;-80
2022/03/21 01:27:27;;;;;;;9.50;6.28;;;8.70;48.40;;;;;;5075069;28;20394;-80
2022/03/21 01:29:53;;;;;;;10.60;6.45;;;8.70;49.30;;;;;;5093020;28;20119;-79
2022/03/21 01:32:19;;;;;;;10.30;6.63;;;8.70;49.00;;;;;;5092897;28;20084;-79
2022/03/21 01:34:44;;;;;;;9.82;6.97;;;8.70;48.40;;;;;;5074637;28;20093;-79
2022/03/21 01:37:10;;;;;;;14.15;6.82;;;8.70;48.10;;;;;;5075004;28;20024;-80
2022/03/21 01:39:36;;;;;;;14.18;7.40;;;8.70;48.20;;;;;;5093011;28;20531;-79
2022/03/21 01:42:02;;;;;;;9.93;6.95;;;8.60;47.90;;;;;;5074361;28;20471;-80
2022/03/21 01:44:28;;;;;;;10.57;6.43;;;8.50;48.00;;;;;;5092367;28;20501;-79
2022/03/21 01:46:54;;;;;;;10.88;6.88;;;8.40;49.10;;;;;;5092754;28;20024;-79
2022/03/21 01:49:20;;;;;;;10.45;6.88;;;8.40;49.50;;;;;;5092559;28;20038;-80
2022/03/21 01:51:46;;;;;;;11.18;7.18;;;8.30;49.10;;;;;;5092404;28;20035;-80
2022/03/21 01:56:56;;;;;;;10.65;6.57;;;8.30;48.90;;;;;;5092481;28;20051;-80
2022/03/21 01:59:22;;;;;;;10.20;6.55;;;8.30;48.70;;;;;;5091594;28;20020;-79
2022/03/21 02:01:49;;;;;;;10.88;7.45;;;8.20;48.70;;;;;;5079152;28;20074;-80
2022/03/21 02:04:15;;;;;;;12.27;7.53;;;8.20;48.60;;;;;;5072064;28;20031;-80
2022/03/21 02:06:45;;;;;;;11.43;7.20;;;8.20;47.40;;;;;;5053321;28;20024;-80
2022/03/21 02:09:11;;;;;;;10.10;6.85;;;8.10;47.70;;;;;;5071846;28;20537;-80
2022/03/21 02:11:37;;;;;;;9.35;7.22;;;8.10;48.50;;;;;;5071940;28;20025;-80
2022/03/21 02:14:05;;;;;;;11.43;7.25;;;8.00;48.50;;;;;;5053993;28;20453;-80
2022/03/21 02:16:33;;;;;;;10.15;6.65;;;8.00;49.60;;;;;;5053971;28;20392;-80
2022/03/21 02:19:06;;;;;;;9.32;6.97;;;7.90;48.80;;;;;;5071610;28;20024;-80
2022/03/21 02:22:05;;;;;;;13.10;7.38;;;7.90;48.90;;;;;;5071729;28;20032;-80
2022/03/21 02:24:49;;;;;;;10.48;6.80;;;8.00;48.80;;;;;;5071706;28;20043;-79
2022/03/21 02:27:17;;;;;;;13.10;7.40;;;7.90;48.50;;;;;;5071548;28;20025;-79
2022/03/21 02:29:47;;;;;;;12.57;7.68;;;7.70;48.80;;;;;;5071735;28;20438;-79
2022/03/21 02:32:13;;;;;;;12.18;7.45;;;7.70;48.80;;;;;;5083433;28;20111;-79
2022/03/21 10:37:42;;;;;;;11.88;7.78;;;11.20;45.80;;;;;;5067914;23;20044;31
2022/03/21 10:40:19;;;;;;;13.77;7.90;;;11.20;45.30;;;;;;4950714;28;20047;-79
2022/03/21 10:42:58;;;;;;;13.82;7.80;;;11.30;46.00;;;;;;4954426;29;20110;-79
2022/03/21 10:45:40;;;;;;;13.30;8.27;;;11.50;47.00;;;;;;4954882;29;20027;-79
2022/03/21 10:48:08;;;;;;;15.57;8.27;;;11.60;45.40;;;;;;4969627;28;20487;-79
2022/03/21 10:50:37;;;;;;;12.90;8.30;;;11.60;43.80;;;;;;4937442;29;20027;-78
2022/03/21 10:53:08;;;;;;;11.18;7.95;;;11.50;43.70;;;;;;4937272;29;20051;-78
2022/03/21 10:55:34;;;;;;;14.53;9.20;;;11.60;43.30;;;;;;4954553;29;20027;-80
2022/03/21 10:58:00;;;;;;;10.43;7.57;;;11.70;45.00;;;;;;4937162;29;20020;-80
2022/03/21 11:00:27;;;;;;;14.23;7.88;;;11.90;45.30;;;;;;4953944;29;20075;-79
2022/03/21 11:02:57;;;;;;;13.90;8.27;;;11.90;43.00;;;;;;4954541;29;20023;-80
2022/03/21 11:05:25;;;;;;;10.20;7.60;;;12.00;43.60;;;;;;4954478;29;20026;-80
2022/03/21 11:07:51;;;;;;;16.02;8.43;;;12.10;43.90;;;;;;4954512;29;20034;-80
2022/03/21 11:10:18;;;;;;;15.15;8.35;;;12.10;42.70;;;;;;4954475;29;20027;-79
2022/03/21 11:12:45;;;;;;;14.18;8.93;;;12.10;42.70;;;;;;4954486;29;20391;-78
2022/03/21 11:15:11;;;;;;;14.40;8.32;;;12.20;42.90;;;;;;4954542;29;20027;-80
2022/03/21 11:17:37;;;;;;;15.80;9.15;;;12.30;42.80;;;;;;4937648;29;20042;-79
2022/03/21 11:20:04;;;;;;;13.90;8.50;;;12.30;42.30;;;;;;4954754;29;20061;-79
2022/03/21 11:22:35;;;;;;;16.88;8.55;;;12.40;42.70;;;;;;4969708;28;20027;-79
2022/03/21 11:25:14;;;;;;;10.85;8.15;;;12.40;41.90;;;;;;4969482;28;20054;-79
2022/03/21 11:28:04;;;;;;;16.20;8.75;;;12.40;41.50;;;;;;4954566;29;20487;-79
2022/03/21 11:31:22;;;;;;;14.43;8.98;;;12.50;42.00;;;;;;4954460;29;20682;-79
2022/03/21 11:34:06;;;;;;;10.63;8.88;;;12.50;42.00;;;;;;4953593;29;20051;-79
2022/03/21 11:36:32;;;;;;;15.02;8.07;;;12.60;41.60;;;;;;4954570;29;20083;-79
2022/03/21 11:39:03;;;;;;;13.02;8.77;;;12.70;41.50;;;;;;4956789;28;20048;-79
2022/03/21 11:41:31;;;;;;;13.70;7.93;;;12.80;42.50;;;;;;4956884;29;20430;-79
2022/03/21 11:44:06;;;;;;;14.15;9.00;;;12.90;42.60;;;;;;4957833;29;20015;-79
2022/03/21 11:46:34;;;;;;;14.02;8.38;;;13.00;42.10;;;;;;4958093;29;20086;-79
2022/03/21 11:49:28;;;;;;;12.80;9.13;;;13.20;43.00;;;;;;4940647;29;20058;-78
2022/03/21 11:51:58;;;;;;;16.70;9.13;;;13.30;43.40;;;;;;4957992;29;20015;-79
2022/03/21 11:54:28;;;;;;;15.55;9.32;;;13.30;42.20;;;;;;4957726;29;20035;-79
2022/03/21 11:56:59;;;;;;;13.82;9.35;;;13.30;40.60;;;;;;4957865;29;20032;-79
2022/03/21 11:59:38;;;;;;;14.07;9.25;;;13.30;40.40;;;;;;4957656;29;20027;-79
2022/03/21 12:02:10;;;;;;;13.13;8.75;;;13.40;41.60;;;;;;4957851;29;20060;-80
2022/03/21 12:04:55;;;;;;;24.77;9.40;;;13.50;41.50;;;;;;4957723;29;20027;-79
2022/03/21 12:07:24;;;;;;;15.98;9.70;;;13.60;40.80;;;;;;4957681;29;20082;-79
2022/03/21 12:09:54;;;;;;;16.90;9.63;;;13.50;39.80;;;;;;4972244;28;20094;-79
2022/03/21 12:12:22;;;;;;;15.43;9.57;;;13.70;41.00;;;;;;4957479;29;20479;-79
2022/03/21 12:14:56;;;;;;;18.50;9.55;;;13.70;40.10;;;;;;4957374;29;20542;-79
2022/03/21 12:17:22;;;;;;;17.80;10.18;;;13.70;39.60;;;;;;4957281;29;20023;-79
2022/03/21 12:19:47;;;;;;;13.07;9.20;;;13.70;38.90;;;;;;4957360;29;20486;-79
2022/03/21 12:22:38;;;;;;;16.77;9.93;;;13.70;39.30;;;;;;4957314;29;20042;-73
2022/03/21 12:25:14;;;;;;;15.60;10.02;;;13.80;40.30;;;;;;4957346;29;20368;-79
2022/03/21 12:27:44;;;;;;;18.55;10.10;;;13.90;41.50;;;;;;4976288;28;20082;-79
2022/03/21 12:30:19;;;;;;;17.35;10.43;;;14.00;41.00;;;;;;4976432;28;20099;-78
2022/03/21 12:33:12;;;;;;;20.50;9.98;;;14.10;40.90;;;;;;4974623;28;20094;-79
2022/03/21 12:35:40;;;;;;;15.07;9.30;;;14.10;38.80;;;;;;4990722;28;20390;-79
2022/03/21 12:38:14;;;;;;;17.92;10.32;;;14.30;40.00;;;;;;4975999;28;20043;-78
2022/03/21 12:40:52;;;;;;;14.82;9.98;;;14.40;40.20;;;;;;4976125;28;20113;-79
2022/03/21 12:43:29;;;;;;;17.08;10.60;;;14.50;39.00;;;;;;4975995;28;20022;-78
2022/03/21 12:46:07;;;;;;;15.23;10.80;;;14.40;38.90;;;;;;4976151;28;20379;-79
2022/03/21 12:48:35;;;;;;;18.60;11.65;;;14.30;37.90;;;;;;4958667;28;20054;-79
2022/03/21 12:51:02;;;;;;;16.13;10.60;;;14.40;39.20;;;;;;4990371;28;20023;-79
2022/03/21 12:53:46;;;;;;;23.65;11.70;;;14.40;38.60;;;;;;4958814;28;20023;-79
2022/03/21 12:56:18;;;;;;;21.73;10.88;;;14.50;39.00;;;;;;4975071;28;20034;-79
2022/03/21 12:58:46;;;;;;;18.13;11.32;;;14.60;38.60;;;;;;4957540;28;20035;-80
2022/03/21 13:01:17;;;;;;;16.63;10.75;;;14.50;38.30;;;;;;4989893;28;20023;-80
2022/03/21 13:03:43;;;;;;;19.35;11.48;;;14.50;38.20;;;;;;4990834;28;20161;-79
2022/03/21 13:11:47;;;;;;;21.20;11.13;;;15.00;39.10;;;;;;4993822;28;20061;-80
2022/03/21 13:14:15;;;;;;;19.30;10.50;;;15.00;38.60;;;;;;5007114;28;20547;-79
2022/03/21 13:16:49;;;;;;;15.18;9.77;;;15.00;39.10;;;;;;4973394;28;20048;-73
2022/03/21 13:19:26;;;;;;;18.50;10.90;;;15.00;39.70;;;;;;4990809;28;20042;-72
2022/03/21 13:21:55;;;;;;;15.65;11.13;;;15.10;38.70;;;;;;4990437;28;20493;-72
2022/03/21 13:24:41;;;;;;;19.35;11.18;;;15.10;38.70;;;;;;4992892;28;20083;-80
2022/03/21 13:27:09;;;;;;;26.20;12.38;;;15.00;37.80;;;;;;4965585;28;20023;-80
2022/03/21 13:29:43;;;;;;;19.50;10.80;;;15.10;38.50;;;;;;4973332;28;20121;-80
2022/03/21 13:32:09;;;;;;;18.90;12.10;;;15.00;38.20;;;;;;4973627;28;20019;-79
2022/03/21 13:34:38;;;;;;;18.27;11.10;;;15.00;38.00;;;;;;4956081;28;20025;-80
2022/03/21 13:37:16;;;;;;;18.67;11.07;;;15.00;38.20;;;;;;4969936;28;20131;-80
2022/03/21 13:40:01;;;;;;;18.42;11.00;;;15.10;38.10;;;;;;4953473;28;20090;-80
2022/03/21 13:42:27;;;;;;;15.85;10.23;;;15.00;38.00;;;;;;4941080;28;20050;-80
2022/03/21 13:44:58;;;;;;;19.20;10.98;;;15.10;37.30;;;;;;4962438;28;20530;-80
2022/03/21 13:47:24;;;;;;;16.83;10.17;;;15.00;37.30;;;;;;4958764;28;20545;-80
2022/03/21 13:49:54;;;;;;;20.92;11.05;;;15.00;37.80;;;;;;4982264;28;20281;-80
2022/03/21 13:52:45;;;;;;;21.63;10.68;;;15.10;38.30;;;;;;4955448;28;20082;-80
2022/03/21 13:55:17;;;;;;;15.77;10.35;;;15.10;38.20;;;;;;4963615;28;20037;-80
2022/03/21 13:57:51;;;;;;;21.77;11.48;;;15.20;37.50;;;;;;4954200;28;20486;-80
2022/03/21 14:00:25;;;;;;;23.83;11.00;;;15.10;37.50;;;;;;4961078;28;20042;-80
2022/03/21 14:02:52;;;;;;;16.20;10.25;;;15.10;38.20;;;;;;4963523;28;20019;-80
2022/03/21 14:05:20;;;;;;;17.08;10.60;;;15.10;37.90;;;;;;4972625;28;20050;-80
2022/03/21 14:08:07;;;;;;;19.83;10.93;;;15.10;37.80;;;;;;4973612;28;20022;-79
2022/03/21 14:10:38;;;;;;;13.40;9.85;;;15.10;37.90;;;;;;4973412;28;20077;-79
2022/03/21 14:13:24;;;;;;;18.23;10.55;;;15.10;38.20;;;;;;4973304;28;20061;-80
2022/03/21 14:15:53;;;;;;;17.98;11.55;;;14.90;38.60;;;;;;4973128;28;20013;-80
2022/03/21 14:18:23;;;;;;;15.05;10.95;;;15.00;38.90;;;;;;4973169;28;20035;-80
2022/03/21 14:20:49;;;;;;;21.67;10.85;;;14.80;37.80;;;;;;4972670;28;20042;-80
2022/03/21 14:23:15;;;;;;;17.27;10.85;;;14.80;37.80;;;;;;4973352;28;20057;-79
2022/03/21 14:28:24;;;;;;;22.63;10.32;;;15.00;38.80;;;;;;4972243;28;20117;-80
2022/03/21 14:30:50;;;;;;;27.83;11.52;;;15.00;38.20;;;;;;4956182;28;20110;-80
2022/03/21 14:33:17;;;;;;;16.20;10.27;;;15.00;39.00;;;;;;4953941;29;20505;-80
2022/03/21 14:35:43;;;;;;;17.42;12.00;;;15.10;38.30;;;;;;4928769;29;20047;-80
2022/03/21 14:38:09;;;;;;;17.85;10.80;;;15.00;38.30;;;;;;4936670;29;20494;-80
2022/03/21 14:40:36;;;;;;;14.75;10.13;;;15.10;39.50;;;;;;4953855;29;20015;-80
2022/03/21 14:43:05;;;;;;;17.05;10.73;;;15.10;38.30;;;;;;4953777;29;20128;-80
2022/03/21 14:45:32;;;;;;;21.65;11.73;;;15.10;38.70;;;;;;4968714;28;20449;-80
2022/03/21 14:47:58;;;;;;;20.98;10.27;;;15.10;39.10;;;;;;4951439;28;20490;-80
2022/03/21 14:50:24;;;;;;;18.83;11.40;;;15.10;38.80;;;;;;4972583;28;20034;-80
2022/03/21 14:52:49;;;;;;;31.15;10.93;;;15.10;39.40;;;;;;4973092;28;20027;-80
2022/03/21 14:55:15;;;;;;;17.90;11.02;;;15.00;38.60;;;;;;4972918;28;20023;-80
2022/03/21 14:57:41;;;;;;;16.27;10.63;;;15.00;38.50;;;;;;4973039;28;20050;-80
2022/03/21 15:00:07;;;;;;;17.10;11.07;;;14.90;38.80;;;;;;4972521;28;20065;-80
2022/03/21 15:02:33;;;;;;;16.80;10.15;;;14.80;38.40;;;;;;4971683;28;20066;-80
2022/03/21 15:04:59;;;;;;;15.05;10.77;;;14.80;38.60;;;;;;4973220;28;20055;-80
2022/03/21 15:07:27;;;;;;;18.20;10.40;;;14.80;38.50;;;;;;4988102;28;20034;-79
2022/03/21 15:12:37;;;;;;;17.88;10.77;;;14.80;38.60;;;;;;4973683;28;20608;-81
2022/03/21 15:15:04;;;;;;;20.65;11.25;;;14.90;39.00;;;;;;4976543;28;20023;-81
2022/03/21 15:17:30;;;;;;;16.73;10.98;;;15.00;39.40;;;;;;4975614;28;20026;-81
2022/03/21 15:19:56;;;;;;;17.20;11.57;;;14.80;38.50;;;;;;4975373;28;20018;-80
2022/03/21 15:22:22;;;;;;;16.25;10.77;;;14.70;38.10;;;;;;4976044;28;20102;-80
2022/03/21 15:24:47;;;;;;;17.80;11.05;;;14.70;38.70;;;;;;4974865;28;20467;-79
2022/03/21 15:27:13;;;;;;;21.17;11.38;;;14.80;39.20;;;;;;4974412;28;20446;-81
2022/03/21 15:29:39;;;;;;;21.35;12.45;;;14.80;39.10;;;;;;4975153;28;20031;-80
2022/03/21 15:32:06;;;;;;;30.10;12.32;;;14.80;39.60;;;;;;4991111;28;20030;-80
2022/03/21 15:34:32;;;;;;;17.13;11.07;;;14.80;39.20;;;;;;4976537;28;20078;-81
2022/03/21 15:42:26;;;;;;;14.45;10.30;;;14.70;39.20;;;;;;4976357;28;20565;-81
2022/03/21 15:44:52;;;;;;;19.80;11.07;;;14.70;39.20;;;;;;4977640;28;20026;-80
2022/03/21 15:47:18;;;;;;;16.58;11.05;;;14.70;39.60;;;;;;4977480;28;20482;-80
2022/03/21 15:49:48;;;;;;;17.77;11.02;;;14.60;38.90;;;;;;4977244;28;20054;-80
2022/03/21 15:52:15;;;;;;;15.60;10.65;;;14.50;39.00;;;;;;4959697;28;20027;-81
2022/03/21 15:54:41;;;;;;;20.88;11.30;;;14.50;39.90;;;;;;4975290;28;20026;-80
2022/03/21 15:57:07;;;;;;;16.73;10.35;;;14.60;40.00;;;;;;4975773;28;20389;-72
2022/03/21 15:59:36;;;;;;;19.73;11.95;;;14.60;39.60;;;;;;4979253;28;20030;-73
2022/03/21 16:02:02;;;;;;;16.63;10.93;;;14.60;39.70;;;;;;4959425;28;20031;-74
2022/03/21 16:04:28;;;;;;;18.52;11.00;;;14.70;40.00;;;;;;4971270;28;20098;-72
2022/03/21 16:06:53;;;;;;;22.80;11.10;;;14.70;40.30;;;;;;4970950;28;20110;-74
2022/03/21 16:09:19;;;;;;;17.98;10.18;;;14.70;40.10;;;;;;4978605;28;20038;-73
2022/03/21 16:11:45;;;;;;;20.23;11.55;;;14.80;39.60;;;;;;4971382;28;20023;-74
2022/03/21 16:14:11;;;;;;;19.33;10.98;;;14.80;39.60;;;;;;4970821;28;20018;-74
2022/03/21 16:16:37;;;;;;;14.80;10.02;;;14.80;39.80;;;;;;4952574;28;20517;-75
2022/03/21 16:19:03;;;;;;;19.25;10.10;;;14.80;39.30;;;;;;4970945;28;20033;-74
2022/03/21 16:21:29;;;;;;;16.73;10.95;;;14.70;39.20;;;;;;4985223;28;20046;-74
2022/03/21 16:23:55;;;;;;;16.10;10.77;;;14.60;39.30;;;;;;4953065;28;20553;-73
2022/03/21 16:26:21;;;;;;;22.73;11.75;;;14.60;39.40;;;;;;4988087;28;20122;-73
2022/03/21 16:28:49;;;;;;;18.60;11.73;;;14.60;39.80;;;;;;4970633;28;20364;-73
2022/03/21 16:31:15;;;;;;;19.85;11.43;;;14.60;39.40;;;;;;4969696;28;20019;-74
2022/03/21 16:33:42;;;;;;;21.30;12.32;;;14.60;40.00;;;;;;4983559;28;20021;-73
2022/03/21 16:36:11;;;;;;;20.25;12.18;;;14.60;40.60;;;;;;4983765;28;20532;-74
2022/03/21 16:38:37;;;;;;;21.83;10.93;;;14.60;40.40;;;;;;4968933;28;20043;-73
2022/03/21 16:41:04;;;;;;;19.40;11.25;;;14.60;40.40;;;;;;4970431;28;20023;-73
2022/03/21 16:43:29;;;;;;;19.50;10.95;;;14.60;40.60;;;;;;4969647;28;20023;-73
2022/03/21 16:45:56;;;;;;;16.92;11.00;;;14.50;40.10;;;;;;4971571;28;20429;-73
2022/03/21 16:48:22;;;;;;;24.20;12.02;;;14.40;40.50;;;;;;4951813;28;20035;-73
2022/03/21 16:50:52;;;;;;;23.00;12.13;;;14.30;41.10;;;;;;4970970;28;20370;-74
2022/03/21 16:53:20;;;;;;;15.55;11.52;;;14.20;41.20;;;;;;4971734;28;20034;-72
2022/03/21 16:55:46;;;;;;;21.17;12.68;;;14.00;41.40;;;;;;4970976;28;20131;-73
2022/03/21 16:58:12;;;;;;;23.25;11.43;;;13.80;41.90;;;;;;4971440;28;20110;-72
2022/03/21 17:00:38;;;;;;;22.92;12.63;;;13.60;42.10;;;;;;4971762;28;20113;-73
2022/03/21 17:03:05;;;;;;;25.83;13.10;;;13.50;42.60;;;;;;4971113;28;20022;-73
2022/03/21 17:05:35;;;;;;;18.55;11.05;;;13.10;43.50;;;;;;4954118;28;20088;-73
2022/03/21 17:08:01;;;;;;;18.10;11.55;;;13.00;43.90;;;;;;4969706;28;20506;-73
2022/03/21 17:10:30;;;;;;;21.95;12.55;;;12.70;44.50;;;;;;4969604;28;20007;-73
2022/03/21 17:12:59;;;;;;;23.90;13.65;;;12.60;45.00;;;;;;4984840;28;20513;-73
2022/03/21 17:15:25;;;;;;;27.45;14.00;;;12.40;45.60;;;;;;4970006;28;20030;-73
2022/03/21 17:23:06;;;;;;;28.77;15.32;;;12.30;46.20;;;;;;4952402;28;20023;-72
2022/03/21 17:23:35;;;;;;;30.65;14.60;;;12.00;47.00;;;;;;4971738;28;20378;-73
2022/03/21 17:26:01;;;;;;;29.08;15.40;;;11.90;48.20;;;;;;4971480;28;20050;-73
2022/03/21 17:28:28;;;;;;;23.88;14.63;;;11.80;48.10;;;;;;4970938;28;20371;-72
2022/03/21 17:30:56;;;;;;;24.42;14.18;;;11.70;49.10;;;;;;4971447;28;20031;-73
2022/03/21 17:33:22;;;;;;;25.05;14.35;;;11.60;48.60;;;;;;4971458;28;20019;-73
2022/03/21 17:35:50;;;;;;;28.75;12.82;;;11.60;48.30;;;;;;4985886;28;20049;-73
2022/03/21 17:38:17;;;;;;;24.02;11.88;;;11.50;48.10;;;;;;4952527;28;20035;-73
2022/03/21 17:40:43;;;;;;;25.50;13.75;;;11.40;48.10;;;;;;4970298;28;20059;-73
2022/03/21 17:43:13;;;;;;;27.50;14.07;;;11.30;48.10;;;;;;4970824;28;20023;-73
2022/03/21 17:45:39;;;;;;;30.00;12.93;;;11.20;48.30;;;;;;4971160;28;20027;-73
2022/03/21 17:48:05;;;;;;;21.63;13.32;;;11.20;48.50;;;;;;4976298;28;20636;-72
2022/03/21 17:50:31;;;;;;;24.45;13.38;;;11.10;48.50;;;;;;4970266;28;20062;-72
2022/03/21 17:56:05;;;;;;;21.15;11.88;;;11.00;48.90;;;;;;4948734;28;20027;-72
2022/03/21 17:58:34;;;;;;;24.30;12.52;;;10.90;48.90;;;;;;4970491;28;20078;-72
2022/03/21 18:01:01;;;;;;;23.15;12.77;;;10.90;48.90;;;;;;4970859;28;20085;-73
2022/03/21 18:03:27;;;;;;;26.27;12.52;;;10.80;49.20;;;;;;4951867;28;20037;-73
2022/03/21 18:05:56;;;;;;;20.10;12.02;;;10.80;49.10;;;;;;4970914;28;20035;-73
2022/03/21 18:08:23;;;;;;;22.20;13.00;;;10.70;49.40;;;;;;4971662;28;20492;-72
2022/03/21 18:10:50;;;;;;;22.17;11.70;;;10.60;49.50;;;;;;4956947;28;20066;-73
2022/03/21 18:13:17;;;;;;;19.92;11.98;;;10.50;49.50;;;;;;4988845;28;20661;-73
2022/03/21 18:15:47;;;;;;;26.80;13.23;;;10.50;49.50;;;;;;4973719;28;20027;-73
2022/03/21 18:18:14;;;;;;;20.42;12.43;;;10.40;49.50;;;;;;4973748;28;20430;-78
2022/03/21 18:20:43;;;;;;;22.63;12.95;;;10.40;49.70;;;;;;5003828;23;20053;-78
2022/03/21 18:23:13;;;;;;;19.42;12.45;;;10.30;49.90;;;;;;5044468;28;20405;-78
2022/03/21 18:25:42;;;;;;;22.88;12.27;;;10.20;50.10;;;;;;5028734;28;20013;-78
2022/03/21 18:28:10;;;;;;;23.48;12.95;;;10.20;50.10;;;;;;5043635;28;20028;-78
2022/03/21 18:30:35;;;;;;;25.02;12.88;;;10.10;50.90;;;;;;5030830;28;20049;-78
2022/03/21 18:33:02;;;;;;;19.15;12.05;;;10.10;50.20;;;;;;5030589;28;20067;-78
2022/03/21 18:35:28;;;;;;;27.98;13.88;;;9.90;50.20;;;;;;5031143;28;20017;-78
2022/03/21 18:37:54;;;;;;;20.67;13.60;;;9.90;50.40;;;;;;5030798;28;20424;-78
2022/03/21 18:40:20;;;;;;;27.20;13.40;;;9.90;50.60;;;;;;5052797;28;20060;-78
2022/03/21 18:42:46;;;;;;;20.52;12.95;;;9.80;50.50;;;;;;5052813;28;20064;-78
2022/03/21 18:45:16;;;;;;;26.92;13.73;;;9.80;50.70;;;;;;5029289;28;20033;-72
2022/03/21 18:47:41;;;;;;;30.23;12.80;;;9.70;50.60;;;;;;5027351;28;20025;-72
2022/03/21 18:50:08;;;;;;;22.77;12.05;;;9.70;51.00;;;;;;5028969;28;20029;-72
2022/03/21 18:52:34;;;;;;;26.02;14.15;;;9.60;51.00;;;;;;5010615;28;20029;-72
2022/03/21 18:55:01;;;;;;;30.33;14.80;;;9.60;51.00;;;;;;5028886;28;20036;-72
2022/03/21 18:57:27;;;;;;;23.75;14.13;;;9.60;51.00;;;;;;5028716;28;20025;-73
2022/03/21 18:59:53;;;;;;;25.42;14.30;;;9.50;50.90;;;;;;5010645;28;20405;-72
2022/03/21 19:02:19;;;;;;;27.45;14.55;;;9.50;51.00;;;;;;5028230;28;20033;-72
2022/03/21 19:04:45;;;;;;;29.60;14.95;;;9.40;51.20;;;;;;5009994;28;20044;-73
2022/03/21 19:07:11;;;;;;;23.08;14.02;;;9.30;51.30;;;;;;5028173;28;20036;-73
2022/03/21 19:09:37;;;;;;;29.25;14.90;;;9.30;51.40;;;;;;5011202;28;20116;-72
2022/03/21 19:12:04;;;;;;;27.35;14.82;;;9.20;51.50;;;;;;5010627;28;20029;-73
2022/03/21 19:14:30;;;;;;;29.60;15.02;;;9.20;52.30;;;;;;5028855;28;20136;-72
2022/03/21 19:16:56;;;;;;;33.15;16.15;;;9.10;51.70;;;;;;5028546;28;20074;-72
2022/03/21 19:19:22;;;;;;;30.98;15.15;;;9.10;51.80;;;;;;5027511;28;20485;-72
2022/03/21 19:21:48;;;;;;;36.67;16.52;;;9.10;51.80;;;;;;5028468;28;20060;-73
2022/03/21 19:24:14;;;;;;;28.67;15.50;;;9.10;51.70;;;;;;5027767;28;20033;-73
2022/03/21 19:26:44;;;;;;;23.77;14.13;;;9.10;51.80;;;;;;5028072;28;20061;-72
2022/03/21 19:29:10;;;;;;;27.20;16.38;;;9.10;51.70;;;;;;5028723;28;20041;-72
2022/03/21 19:31:36;;;;;;;25.73;14.18;;;9.10;51.70;;;;;;5027621;28;20188;-72
2022/03/21 19:34:04;;;;;;;28.50;15.15;;;9.10;51.70;;;;;;5028006;28;20513;-71
2022/03/21 19:36:30;;;;;;;22.27;13.98;;;8.90;51.90;;;;;;5010119;28;20037;-72
2022/03/21 19:38:59;;;;;;;27.98;16.15;;;8.80;52.30;;;;;;5042695;28;20492;-71
2022/03/21 19:41:26;;;;;;;30.65;17.02;;;8.70;52.50;;;;;;5046390;28;20029;-72
2022/03/21 19:43:55;;;;;;;24.40;14.68;;;8.70;52.60;;;;;;5046670;28;20033;-72
2022/03/21 19:46:23;;;;;;;30.52;14.25;;;8.70;52.50;;;;;;5046107;28;20413;-72
2022/03/21 19:48:49;;;;;;;24.52;14.40;;;8.60;53.30;;;;;;5028644;28;20025;-72
2022/03/21 19:51:15;;;;;;;25.92;15.15;;;8.50;52.70;;;;;;5048227;28;20100;-72
2022/03/21 19:53:41;;;;;;;24.83;13.88;;;8.50;52.80;;;;;;5050713;28;20405;-72
2022/03/21 19:56:07;;;;;;;28.88;13.85;;;8.60;53.00;;;;;;5032154;28;20026;-71
2022/03/21 19:58:34;;;;;;;21.58;12.50;;;8.50;53.10;;;;;;5027230;28;20112;-72
2022/03/21 20:01:00;;;;;;;23.38;13.73;;;8.50;53.00;;;;;;5029832;28;20503;-78
2022/03/21 20:03:26;;;;;;;26.00;14.45;;;8.40;53.00;;;;;;5032037;28;20374;-72
2022/03/21 20:08:25;;;;;;;22.25;14.05;;;8.30;53.40;;;;;;5074431;22;20065;-72
2022/03/21 20:11:04;;;;;;;24.35;14.73;;;8.40;53.60;;;;;;5072915;28;20031;-73
2022/03/21 20:13:30;;;;;;;23.13;13.82;;;8.30;53.70;;;;;;5091638;28;20103;-78
2022/03/21 20:15:55;;;;;;;24.25;13.55;;;8.10;53.90;;;;;;5091814;28;20107;-72
2022/03/21 20:18:24;;;;;;;22.10;13.68;;;8.10;54.00;;;;;;5072372;28;20028;-72
2022/03/21 20:20:53;;;;;;;24.27;13.45;;;8.00;54.30;;;;;;5090841;28;20368;-72
2022/03/21 20:23:24;;;;;;;21.08;12.95;;;8.00;54.30;;;;;;5091260;28;20024;-71
2022/03/21 20:25:50;;;;;;;21.67;12.60;;;8.10;54.20;;;;;;5072027;28;20106;-72
2022/03/21 20:28:16;;;;;;;24.08;13.73;;;8.20;54.00;;;;;;5089121;28;20054;-72
2022/03/21 20:30:42;;;;;;;31.75;15.43;;;8.20;53.70;;;;;;5090358;28;20459;-72
2022/03/21 20:33:07;;;;;;;26.05;14.30;;;8.20;53.60;;;;;;5088405;28;20028;-72
2022/03/21 20:35:34;;;;;;;23.95;13.70;;;8.10;53.80;;;;;;5089416;28;20024;-72
2022/03/21 20:38:00;;;;;;;21.08;13.65;;;8.20;54.00;;;;;;5070876;28;20051;-72
2022/03/21 20:40:26;;;;;;;26.73;13.90;;;8.20;54.00;;;;;;5088874;28;20040;-72
2022/03/21 20:42:56;;;;;;;27.45;13.63;;;8.10;54.00;;;;;;5090115;28;20045;-72
2022/03/21 20:45:24;;;;;;;26.23;13.48;;;8.20;53.90;;;;;;5088425;28;20028;-72
2022/03/21 20:47:51;;;;;;;24.17;13.20;;;8.20;53.90;;;;;;5069116;28;20024;-73
2022/03/21 20:50:17;;;;;;;47.00;25.65;;;8.30;54.20;;;;;;5086200;28;20023;-73
2022/03/21 20:52:45;;;;;;;56.60;29.45;;;8.30;54.30;;;;;;5087333;28;20066;-72
2022/03/21 20:55:10;;;;;;;42.55;23.77;;;8.30;54.40;;;;;;5087918;28;20035;-72
2022/03/21 20:57:37;;;;;;;150.98;78.20;;;8.30;54.10;;;;;;5086210;28;20524;-72
2022/03/21 21:00:07;;;;;;;54.53;32.40;;;8.30;54.10;;;;;;5066939;28;20081;-73
2022/03/21 21:02:33;;;;;;;27.40;16.30;;;8.50;54.40;;;;;;5066625;28;20032;-72
2022/03/21 21:04:59;;;;;;;26.77;14.95;;;8.40;53.60;;;;;;5087162;28;20036;-72
2022/03/21 21:07:25;;;;;;;22.65;13.35;;;8.20;53.60;;;;;;5067605;28;20069;-72
2022/03/21 21:10:49;;;;;;;27.35;14.60;;;8.10;53.90;;;;;;5083147;28;20040;-72
2022/03/21 21:12:37;;;;;;;22.42;13.77;;;8.00;54.20;;;;;;5082610;28;21557;-72
2022/03/21 21:15:04;;;;;;;21.98;12.48;;;8.00;54.50;;;;;;5087829;28;20054;-72